Time;durP1;ratioP1;P1;durP2;ratioP2;P2;SDS_P1;SDS_P2;PMS_P1;PMS_P2;Temp;Humidity;BMP_temperature;BMP_pressure;BME280_temperature;BME280_humidity;BME280_pressure;Samples;Min_cycle;Max_cycle;Signal;HPM_P1;HPM_P2
2023/08/30 00:01:23;;;;;;;15.38;9.02;;;13.60;99.90;;;;;;4976327;28;20037;-66
2023/08/30 00:03:49;;;;;;;13.18;9.13;;;13.60;99.90;;;;;;4969240;28;20392;-65
2023/08/30 00:06:15;;;;;;;11.25;8.63;;;13.60;99.90;;;;;;4977072;28;20058;-65
2023/08/30 00:08:41;;;;;;;12.00;8.73;;;13.60;99.90;;;;;;4976555;28;20022;-66
2023/08/30 00:11:06;;;;;;;13.00;8.85;;;13.60;99.90;;;;;;4963752;28;20034;-65
2023/08/30 00:13:32;;;;;;;13.70;10.25;;;13.60;99.90;;;;;;4980489;28;20496;-65
2023/08/30 00:15:59;;;;;;;11.90;9.18;;;13.60;99.90;;;;;;4977460;28;20037;-65
2023/08/30 00:18:24;;;;;;;15.25;9.73;;;13.60;99.90;;;;;;4976894;28;20026;-65
2023/08/30 00:20:50;;;;;;;13.35;10.02;;;13.50;99.90;;;;;;4977817;28;20407;-65
2023/08/30 00:23:16;;;;;;;14.30;10.13;;;13.50;99.90;;;;;;4977164;28;20023;-65
2023/08/30 00:25:42;;;;;;;12.63;9.63;;;13.50;99.90;;;;;;4976416;28;20018;-65
2023/08/30 00:28:07;;;;;;;13.55;10.77;;;13.40;99.90;;;;;;4978549;28;20037;-65
2023/08/30 00:30:33;;;;;;;15.60;9.95;;;13.40;99.90;;;;;;4980585;28;20507;-65
2023/08/30 00:32:59;;;;;;;13.27;9.77;;;13.40;99.90;;;;;;4980827;28;20035;-65
2023/08/30 00:35:24;;;;;;;15.75;11.82;;;13.40;99.90;;;;;;4980746;28;20038;-65
2023/08/30 00:37:50;;;;;;;15.25;11.18;;;13.30;99.90;;;;;;4999531;28;20023;-65
2023/08/30 00:40:15;;;;;;;17.52;10.95;;;13.30;99.90;;;;;;4978956;28;20516;-65
2023/08/30 00:42:41;;;;;;;14.05;10.75;;;13.30;99.90;;;;;;4981483;28;20058;-65
2023/08/30 00:45:07;;;;;;;21.35;10.68;;;13.30;99.90;;;;;;4979749;28;20054;-66
2023/08/30 00:47:34;;;;;;;16.23;10.38;;;13.30;99.90;;;;;;4980465;28;20030;-66
2023/08/30 00:50:01;;;;;;;15.32;10.68;;;13.30;99.90;;;;;;4980620;28;20546;-65
2023/08/30 00:52:26;;;;;;;13.25;9.88;;;13.20;99.90;;;;;;4979611;28;20113;-65
2023/08/30 00:54:52;;;;;;;15.85;9.02;;;13.20;99.90;;;;;;4982189;28;20157;-66
2023/08/30 00:57:18;;;;;;;11.05;9.20;;;13.20;99.90;;;;;;4980520;28;20085;-66
2023/08/30 00:59:43;;;;;;;15.80;9.98;;;13.10;99.90;;;;;;4980341;28;20038;-66
2023/08/30 01:02:09;;;;;;;14.95;9.88;;;13.10;99.90;;;;;;4978571;28;20038;-66
2023/08/30 01:04:35;;;;;;;13.23;10.18;;;13.00;99.90;;;;;;4970325;28;20260;-66
2023/08/30 01:07:00;;;;;;;15.60;11.20;;;13.00;99.90;;;;;;4975539;28;20065;-64
2023/08/30 01:09:26;;;;;;;21.92;11.73;;;13.00;99.90;;;;;;4974705;28;20027;-65
2023/08/30 01:12:07;;;;;;;18.90;11.70;;;12.90;99.90;;;;;;4975921;28;20056;-66
2023/08/30 01:14:56;;;;;;;14.98;11.38;;;12.90;99.90;;;;;;4975439;28;20027;-66
2023/08/30 01:17:24;;;;;;;17.30;11.55;;;12.90;99.90;;;;;;4976698;28;20054;-67
2023/08/30 01:19:58;;;;;;;20.85;12.18;;;12.90;99.90;;;;;;4989978;28;21947;-67
2023/08/30 01:22:53;;;;;;;18.55;13.95;;;12.90;99.90;;;;;;4978299;28;20820;-65
2023/08/30 01:25:33;;;;;;;18.92;13.27;;;13.00;99.90;;;;;;4963223;28;20634;-65
2023/08/30 01:28:03;;;;;;;16.67;12.80;;;13.00;99.90;;;;;;4979298;28;20093;-67
2023/08/30 01:30:30;;;;;;;17.45;12.45;;;13.10;99.90;;;;;;4979794;28;20122;-66
2023/08/30 01:32:56;;;;;;;17.40;12.07;;;13.10;99.90;;;;;;4979416;28;20030;-67
2023/08/30 01:35:24;;;;;;;21.42;12.50;;;13.10;99.90;;;;;;4979440;28;20089;-66
2023/08/30 01:37:51;;;;;;;17.35;12.48;;;13.10;99.90;;;;;;4980807;28;20022;-66
2023/08/30 01:40:18;;;;;;;17.17;10.45;;;13.10;99.90;;;;;;4979850;28;20043;-66
2023/08/30 01:42:45;;;;;;;17.00;12.30;;;13.10;99.90;;;;;;4978866;28;20039;-65
2023/08/30 01:45:13;;;;;;;16.50;11.90;;;13.10;99.90;;;;;;4978222;28;20096;-67
2023/08/30 01:47:41;;;;;;;15.02;11.00;;;13.20;99.90;;;;;;4980323;28;20373;-66
2023/08/30 01:50:07;;;;;;;14.85;11.13;;;13.20;99.90;;;;;;4980899;28;20446;-66
2023/08/30 01:52:33;;;;;;;15.68;11.23;;;13.20;99.90;;;;;;4978967;28;20089;-66
2023/08/30 01:55:02;;;;;;;13.60;10.95;;;13.20;99.90;;;;;;4979936;28;20093;-66
2023/08/30 01:57:27;;;;;;;16.42;12.27;;;13.10;99.90;;;;;;4980781;28;20035;-66
2023/08/30 01:59:53;;;;;;;15.30;11.15;;;13.10;99.90;;;;;;4981198;28;20064;-66
2023/08/30 02:02:19;;;;;;;14.52;10.40;;;13.10;99.90;;;;;;4979888;28;20567;-66
2023/08/30 02:04:44;;;;;;;13.45;11.27;;;13.20;99.90;;;;;;4975413;28;20059;-66
2023/08/30 02:07:25;;;;;;;15.30;11.43;;;13.20;99.90;;;;;;4978092;28;20146;-66
2023/08/30 02:10:17;;;;;;;17.42;11.35;;;13.20;99.90;;;;;;4979297;28;20034;-66
2023/08/30 02:12:47;;;;;;;15.98;12.38;;;13.30;99.90;;;;;;4971086;28;20152;-67
2023/08/30 02:15:14;;;;;;;17.25;12.18;;;13.30;99.90;;;;;;4978829;28;20023;-66
2023/08/30 02:17:40;;;;;;;17.38;13.35;;;13.20;99.90;;;;;;4979981;28;20034;-66
2023/08/30 02:20:07;;;;;;;13.25;10.88;;;13.30;99.90;;;;;;4981257;28;20041;-66
2023/08/30 02:22:33;;;;;;;19.15;11.05;;;13.30;99.90;;;;;;4977551;28;20030;-65
2023/08/30 02:25:01;;;;;;;17.33;12.68;;;13.30;99.90;;;;;;4978951;28;21597;-67
2023/08/30 02:27:26;;;;;;;16.52;12.45;;;13.40;99.90;;;;;;4978582;28;20027;-66
2023/08/30 02:29:52;;;;;;;20.58;12.05;;;13.40;99.90;;;;;;4975072;28;20034;-66
2023/08/30 02:32:20;;;;;;;17.90;11.23;;;13.40;99.90;;;;;;4976670;28;20084;-66
2023/08/30 02:34:49;;;;;;;17.33;12.20;;;13.40;99.90;;;;;;4976991;28;20026;-66
2023/08/30 02:37:15;;;;;;;20.10;13.45;;;13.50;99.90;;;;;;4980700;28;20034;-66
2023/08/30 02:39:40;;;;;;;18.05;12.85;;;13.50;99.90;;;;;;4980666;28;20037;-66
2023/08/30 02:42:06;;;;;;;19.00;11.68;;;13.50;99.90;;;;;;4979544;28;20030;-65
2023/08/30 02:44:31;;;;;;;15.52;12.43;;;13.50;99.90;;;;;;4979633;28;20443;-66
2023/08/30 02:46:57;;;;;;;18.20;12.82;;;13.50;99.90;;;;;;4979358;28;20038;-65
2023/08/30 02:49:23;;;;;;;16.73;11.93;;;13.60;99.90;;;;;;4980850;28;20073;-66
2023/08/30 02:51:48;;;;;;;20.05;13.00;;;13.50;99.90;;;;;;4979655;28;20034;-66
2023/08/30 02:54:14;;;;;;;17.95;13.52;;;13.50;99.90;;;;;;4978574;28;20034;-66
2023/08/30 02:56:43;;;;;;;21.77;12.25;;;13.60;99.90;;;;;;4977578;28;20038;-66
2023/08/30 02:59:09;;;;;;;17.85;11.80;;;13.60;99.90;;;;;;4978041;28;20035;-66
2023/08/30 03:01:35;;;;;;;18.60;13.02;;;13.60;99.90;;;;;;4979104;28;20035;-66
2023/08/30 03:04:00;;;;;;;16.60;12.82;;;13.50;99.90;;;;;;4969587;28;20030;-66
2023/08/30 03:06:26;;;;;;;17.67;12.70;;;13.50;99.90;;;;;;4978448;28;20089;-65
2023/08/30 03:08:53;;;;;;;22.50;13.27;;;13.50;99.90;;;;;;4979396;28;20076;-66
2023/08/30 03:11:19;;;;;;;16.13;12.60;;;13.50;99.90;;;;;;4977500;28;20038;-66
2023/08/30 03:13:45;;;;;;;19.17;13.70;;;13.50;99.90;;;;;;4978409;28;20553;-66
2023/08/30 03:16:11;;;;;;;18.90;13.13;;;13.40;99.90;;;;;;4976199;28;21263;-66
2023/08/30 03:18:37;;;;;;;17.65;12.35;;;13.40;99.90;;;;;;4980151;28;20034;-66
2023/08/30 03:21:03;;;;;;;20.17;13.48;;;13.30;99.90;;;;;;4978360;28;20031;-66
2023/08/30 03:23:31;;;;;;;19.23;14.40;;;13.30;99.90;;;;;;4998836;28;20058;-66
2023/08/30 03:25:56;;;;;;;21.70;14.30;;;13.30;99.90;;;;;;4977192;28;20030;-66
2023/08/30 03:28:22;;;;;;;18.13;13.63;;;13.30;99.90;;;;;;4977958;28;20044;-66
2023/08/30 03:30:47;;;;;;;16.65;13.07;;;13.30;99.90;;;;;;4977844;28;20393;-66
2023/08/30 03:33:13;;;;;;;17.17;11.32;;;13.40;99.90;;;;;;4979057;28;20113;-65
2023/08/30 03:35:39;;;;;;;19.88;12.02;;;13.30;99.90;;;;;;4979009;28;20062;-66
2023/08/30 03:38:05;;;;;;;16.38;11.13;;;13.30;99.90;;;;;;4979236;28;20688;-67
2023/08/30 03:40:31;;;;;;;18.67;11.70;;;13.30;99.90;;;;;;4976943;28;20054;-65
2023/08/30 03:42:56;;;;;;;18.00;12.73;;;13.20;99.90;;;;;;4977998;28;21676;-65
2023/08/30 03:45:22;;;;;;;21.15;12.75;;;13.30;99.90;;;;;;4979487;28;20031;-65
2023/08/30 03:47:47;;;;;;;19.20;12.50;;;13.20;99.90;;;;;;4975642;28;20035;-66
2023/08/30 03:50:13;;;;;;;20.45;13.00;;;13.20;99.90;;;;;;4976833;28;20129;-66
2023/08/30 03:52:39;;;;;;;17.30;13.13;;;13.20;99.90;;;;;;4984071;28;20098;-66
2023/08/30 03:55:05;;;;;;;21.40;14.38;;;13.20;99.90;;;;;;4978444;28;20058;-64
2023/08/30 03:57:30;;;;;;;19.77;14.65;;;13.20;99.90;;;;;;4976911;28;20035;-65
2023/08/30 03:59:56;;;;;;;21.48;15.68;;;13.20;99.90;;;;;;4977997;28;20526;-64
2023/08/30 04:02:21;;;;;;;20.35;15.00;;;13.20;99.90;;;;;;4978932;28;20032;-66
2023/08/30 04:04:50;;;;;;;25.45;15.60;;;13.10;99.90;;;;;;4975968;28;20070;-66
2023/08/30 04:07:16;;;;;;;21.40;15.50;;;13.10;99.90;;;;;;4976353;28;20031;-65
2023/08/30 04:09:41;;;;;;;22.10;14.23;;;13.00;99.90;;;;;;4978177;28;20026;-67
2023/08/30 04:12:07;;;;;;;25.20;14.77;;;13.00;99.90;;;;;;4975893;28;20044;-66
2023/08/30 04:14:32;;;;;;;25.08;14.07;;;12.90;99.90;;;;;;4977723;28;20039;-66
2023/08/30 04:16:58;;;;;;;21.48;14.07;;;12.90;99.90;;;;;;4979680;28;20030;-66
2023/08/30 04:19:24;;;;;;;20.20;13.48;;;12.80;99.90;;;;;;4976850;28;20427;-66
2023/08/30 04:21:49;;;;;;;19.20;13.65;;;12.70;99.90;;;;;;4975086;28;20027;-66
2023/08/30 04:24:15;;;;;;;23.25;15.38;;;12.60;99.90;;;;;;4974593;28;20046;-66
2023/08/30 04:26:41;;;;;;;18.10;13.23;;;12.60;99.90;;;;;;4977425;28;20492;-66
2023/08/30 04:29:07;;;;;;;18.02;12.95;;;12.50;99.90;;;;;;4978177;28;20104;-64
2023/08/30 04:31:32;;;;;;;17.85;12.18;;;12.40;99.90;;;;;;4976763;28;20026;-65
2023/08/30 04:33:58;;;;;;;17.20;11.82;;;12.30;99.90;;;;;;4978622;28;20022;-66
2023/08/30 04:36:24;;;;;;;19.88;12.45;;;12.20;99.90;;;;;;4977940;28;20026;-66
2023/08/30 04:38:49;;;;;;;25.60;12.95;;;12.20;99.90;;;;;;4976955;28;20049;-66
2023/08/30 04:41:15;;;;;;;16.67;12.07;;;12.10;99.90;;;;;;4975963;28;20038;-65
2023/08/30 04:43:40;;;;;;;24.55;12.27;;;12.00;99.90;;;;;;4974109;28;20500;-64
2023/08/30 04:46:06;;;;;;;16.90;12.23;;;11.90;99.90;;;;;;4977810;28;20035;-66
2023/08/30 04:48:31;;;;;;;17.98;12.38;;;11.80;99.90;;;;;;4975864;28;20085;-66
2023/08/30 04:51:04;;;;;;;22.33;12.55;;;11.80;99.90;;;;;;4976419;28;20675;-65
2023/08/30 04:53:30;;;;;;;20.95;12.45;;;11.80;99.90;;;;;;4976989;28;20442;-66
2023/08/30 04:55:56;;;;;;;22.33;12.90;;;11.70;99.90;;;;;;4974046;28;20038;-66
2023/08/30 04:58:21;;;;;;;23.35;13.50;;;11.70;99.90;;;;;;4976710;28;20412;-65
2023/08/30 05:00:47;;;;;;;23.90;15.75;;;11.80;99.90;;;;;;4978151;28;20416;-65
2023/08/30 05:03:13;;;;;;;32.83;17.05;;;11.80;99.90;;;;;;4976110;28;20061;-64
2023/08/30 05:05:38;;;;;;;26.55;16.35;;;11.80;99.90;;;;;;4967073;28;20066;-66
2023/08/30 05:08:04;;;;;;;35.97;19.42;;;11.90;99.90;;;;;;4975806;28;20030;-66
2023/08/30 05:10:30;;;;;;;29.30;15.55;;;12.00;99.90;;;;;;4975307;28;20031;-65
2023/08/30 05:12:56;;;;;;;27.73;17.20;;;12.00;99.90;;;;;;4975485;28;20039;-66
2023/08/30 05:15:21;;;;;;;27.08;15.93;;;12.10;99.90;;;;;;4977569;28;20076;-67
2023/08/30 05:17:47;;;;;;;31.88;18.00;;;12.20;99.90;;;;;;4977665;28;20499;-66
2023/08/30 05:20:13;;;;;;;27.60;17.73;;;12.20;99.90;;;;;;4981588;28;20370;-68
2023/08/30 05:22:38;;;;;;;24.45;15.23;;;12.30;99.90;;;;;;5001487;28;20382;-66
2023/08/30 05:25:04;;;;;;;32.03;17.45;;;12.40;99.90;;;;;;4979877;28;20456;-67
2023/08/30 05:27:30;;;;;;;27.15;16.70;;;12.40;99.90;;;;;;4980734;28;20033;-68
2023/08/30 05:29:55;;;;;;;25.83;17.90;;;12.50;99.90;;;;;;4980360;28;20035;-68
2023/08/30 05:32:21;;;;;;;22.98;16.10;;;12.60;99.90;;;;;;4979663;28;20054;-65
2023/08/30 05:34:47;;;;;;;28.40;16.67;;;12.60;99.90;;;;;;4980134;28;20054;-65
2023/08/30 05:37:13;;;;;;;22.55;15.40;;;12.70;99.90;;;;;;4978730;28;20046;-64
2023/08/30 05:39:39;;;;;;;23.08;15.77;;;12.80;99.90;;;;;;4979823;28;20066;-65
2023/08/30 05:42:05;;;;;;;22.92;14.88;;;12.80;99.90;;;;;;4979279;28;20026;-65
2023/08/30 05:44:30;;;;;;;22.02;15.45;;;12.90;99.90;;;;;;4981377;28;20023;-64
2023/08/30 05:46:56;;;;;;;20.33;13.90;;;13.00;99.90;;;;;;4980925;28;20026;-67
2023/08/30 05:49:21;;;;;;;20.25;13.35;;;13.00;99.90;;;;;;4981249;28;21030;-66
2023/08/30 05:51:47;;;;;;;20.83;12.88;;;13.10;99.90;;;;;;4979808;28;20039;-65
2023/08/30 05:54:13;;;;;;;20.48;13.85;;;13.20;99.90;;;;;;4982642;28;20453;-66
2023/08/30 05:56:39;;;;;;;20.80;12.77;;;13.30;99.90;;;;;;4977533;28;20042;-67
2023/08/30 05:59:04;;;;;;;15.57;11.52;;;13.40;99.90;;;;;;4978056;28;20150;-67
2023/08/30 06:01:30;;;;;;;16.30;12.35;;;13.60;99.90;;;;;;4976429;28;20030;-66
2023/08/30 06:03:56;;;;;;;15.80;10.82;;;13.60;99.90;;;;;;4976612;28;20854;-66
2023/08/30 06:06:22;;;;;;;20.02;10.50;;;13.80;99.90;;;;;;4970189;28;20523;-68
2023/08/30 06:08:47;;;;;;;13.23;10.50;;;14.00;99.90;;;;;;4980226;28;20042;-67
2023/08/30 06:11:13;;;;;;;16.25;10.23;;;14.10;99.90;;;;;;4978985;28;20035;-67
2023/08/30 06:13:39;;;;;;;15.20;10.20;;;14.30;99.90;;;;;;4995220;28;20034;-67
2023/08/30 06:16:05;;;;;;;13.65;10.43;;;14.40;99.90;;;;;;4977624;28;20038;-67
2023/08/30 06:18:34;;;;;;;14.52;9.60;;;14.50;99.90;;;;;;4976806;28;20035;-66
2023/08/30 06:20:59;;;;;;;15.10;9.32;;;14.60;99.90;;;;;;4979945;28;20122;-66
2023/08/30 06:23:25;;;;;;;12.18;9.48;;;14.70;99.90;;;;;;4978909;28;20109;-67
2023/08/30 06:25:57;;;;;;;12.85;9.10;;;14.80;99.90;;;;;;4999347;28;20057;-66
2023/08/30 06:28:24;;;;;;;12.77;10.05;;;14.80;99.90;;;;;;4980962;28;20554;-66
2023/08/30 06:30:50;;;;;;;11.82;8.80;;;14.80;99.90;;;;;;4989999;28;20175;-67
2023/08/30 06:33:16;;;;;;;11.00;8.45;;;14.90;99.90;;;;;;4978365;28;20069;-67
2023/08/30 06:35:42;;;;;;;13.20;7.72;;;15.00;99.90;;;;;;4979045;28;20508;-67
2023/08/30 06:38:08;;;;;;;12.20;8.18;;;15.20;99.90;;;;;;4978189;28;20512;-67
2023/08/30 06:40:33;;;;;;;10.73;8.25;;;15.40;99.90;;;;;;4979145;28;20030;-67
2023/08/30 06:42:59;;;;;;;8.95;5.97;;;16.00;99.90;;;;;;4979074;28;20038;-67
2023/08/30 06:45:25;;;;;;;8.00;5.60;;;16.40;99.90;;;;;;4978349;28;20122;-67
2023/08/30 06:47:51;;;;;;;9.25;5.90;;;16.90;99.90;;;;;;4979917;28;20019;-68
2023/08/30 06:50:17;;;;;;;6.43;5.05;;;17.60;99.90;;;;;;4981379;28;20027;-67
2023/08/30 06:52:43;;;;;;;8.95;6.03;;;17.90;99.90;;;;;;4974618;28;20112;-68
2023/08/30 06:55:09;;;;;;;6.93;5.20;;;18.50;99.90;;;;;;4979814;28;20049;-66
2023/08/30 06:57:34;;;;;;;8.88;5.47;;;18.90;99.90;;;;;;4979777;28;20034;-65
2023/08/30 07:00:07;;;;;;;6.05;4.68;;;19.20;99.90;;;;;;4978988;28;20043;-67
2023/08/30 07:02:34;;;;;;;6.95;4.82;;;19.50;99.90;;;;;;4979848;28;20435;-64
2023/08/30 07:04:59;;;;;;;9.52;4.95;;;20.30;99.90;;;;;;4968260;28;20079;-64
2023/08/30 07:07:25;;;;;;;7.47;4.80;;;20.60;99.90;;;;;;4977953;28;20063;-65
2023/08/30 07:09:51;;;;;;;5.82;4.28;;;20.70;99.90;;;;;;4976514;28;20041;-65
2023/08/30 07:12:16;;;;;;;8.63;4.80;;;21.70;99.90;;;;;;4978549;28;21398;-65
2023/08/30 07:14:42;;;;;;;5.05;3.95;;;22.20;99.90;;;;;;4975399;28;20038;-65
2023/08/30 07:17:08;;;;;;;7.15;4.68;;;22.20;99.90;;;;;;4980368;28;20420;-64
2023/08/30 07:19:33;;;;;;;5.82;4.68;;;22.60;99.90;;;;;;4979293;28;20062;-65
2023/08/30 07:21:59;;;;;;;6.95;4.03;;;23.70;98.70;;;;;;4974718;28;20089;-65
2023/08/30 07:24:24;;;;;;;6.90;4.95;;;24.60;96.60;;;;;;4975947;28;20045;-66
2023/08/30 07:26:50;;;;;;;5.47;3.92;;;24.80;96.40;;;;;;4976509;28;20742;-65
2023/08/30 07:29:15;;;;;;;5.75;4.35;;;25.10;94.80;;;;;;4976237;28;20121;-65
2023/08/30 07:31:41;;;;;;;7.53;3.90;;;25.70;93.30;;;;;;4979290;28;20039;-65
2023/08/30 07:34:07;;;;;;;5.07;3.88;;;26.10;92.80;;;;;;4975378;28;20038;-65
2023/08/30 07:36:33;;;;;;;6.47;4.28;;;25.50;92.70;;;;;;4976706;28;20052;-65
2023/08/30 07:38:59;;;;;;;7.15;4.82;;;25.50;93.10;;;;;;4980490;28;20042;-65
2023/08/30 07:41:25;;;;;;;6.32;4.72;;;25.50;92.60;;;;;;4979451;28;20110;-65
2023/08/30 07:43:50;;;;;;;11.77;3.90;;;26.20;91.90;;;;;;4977295;28;20029;-65
2023/08/30 07:46:16;;;;;;;4.95;4.15;;;27.20;91.10;;;;;;4975535;28;20026;-65
2023/08/30 07:48:41;;;;;;;7.15;3.80;;;27.20;88.60;;;;;;4976083;28;20101;-65
2023/08/30 07:51:07;;;;;;;6.18;3.90;;;26.40;90.00;;;;;;4978518;28;20030;-66
2023/08/30 07:53:32;;;;;;;9.82;4.38;;;25.70;90.40;;;;;;4982476;28;20113;-64
2023/08/30 07:55:58;;;;;;;6.90;4.25;;;25.30;91.00;;;;;;4975775;28;20030;-65
2023/08/30 07:58:24;;;;;;;6.10;4.10;;;26.20;90.00;;;;;;4975114;28;20423;-65
2023/08/30 08:00:53;;;;;;;9.07;4.28;;;26.70;90.20;;;;;;4979551;28;20066;-66
2023/08/30 08:03:20;;;;;;;4.53;3.35;;;26.50;89.60;;;;;;4974992;28;20023;-66
2023/08/30 08:05:46;;;;;;;6.00;3.85;;;26.20;87.60;;;;;;4967945;28;20046;-65
2023/08/30 08:08:11;;;;;;;4.47;3.35;;;26.00;87.40;;;;;;4980134;28;20030;-65
2023/08/30 08:10:37;;;;;;;3.63;2.90;;;26.10;91.50;;;;;;4979366;28;20122;-65
2023/08/30 08:13:05;;;;;;;4.78;3.30;;;26.10;90.20;;;;;;4977791;28;20041;-65
2023/08/30 08:15:31;;;;;;;5.75;3.53;;;26.30;87.80;;;;;;4976452;28;20563;-67
2023/08/30 08:17:57;;;;;;;4.43;3.33;;;26.70;87.00;;;;;;4976304;28;20041;-65
2023/08/30 08:20:23;;;;;;;7.70;4.38;;;25.90;90.00;;;;;;4979933;28;20031;-65
2023/08/30 08:22:48;;;;;;;4.78;3.00;;;25.90;90.30;;;;;;4978157;28;20030;-66
2023/08/30 08:25:15;;;;;;;5.97;3.40;;;26.20;88.40;;;;;;4976425;28;20414;-64
2023/08/30 08:27:40;;;;;;;7.45;3.63;;;26.60;87.40;;;;;;4976763;28;20023;-66
2023/08/30 08:30:07;;;;;;;4.53;3.15;;;26.90;87.60;;;;;;4976425;28;20432;-65
2023/08/30 08:32:33;;;;;;;4.95;3.05;;;26.50;87.80;;;;;;4977131;28;20500;-65
2023/08/30 08:34:58;;;;;;;4.20;3.00;;;26.20;86.10;;;;;;4978081;28;20030;-65
2023/08/30 08:37:24;;;;;;;4.93;2.22;;;25.70;86.30;;;;;;4983331;28;20039;-66
2023/08/30 08:39:50;;;;;;;4.00;2.35;;;25.10;91.00;;;;;;4977839;28;20034;-66
2023/08/30 08:42:19;;;;;;;5.90;2.75;;;25.20;90.60;;;;;;4979149;28;20053;-66
2023/08/30 08:44:48;;;;;;;3.83;2.35;;;25.60;89.20;;;;;;4979036;28;20037;-64
2023/08/30 08:47:16;;;;;;;7.90;2.65;;;26.20;86.90;;;;;;4978347;28;20027;-66
2023/08/30 08:49:43;;;;;;;4.82;2.40;;;26.90;81.30;;;;;;4979035;28;20109;-65
2023/08/30 08:52:09;;;;;;;6.47;2.25;;;26.00;83.00;;;;;;4979966;28;20472;-65
2023/08/30 08:54:38;;;;;;;4.70;2.65;;;25.60;84.70;;;;;;4982116;28;20392;-65
2023/08/30 08:57:05;;;;;;;3.90;2.13;;;25.60;85.60;;;;;;4980559;28;20038;-67
2023/08/30 08:59:31;;;;;;;3.55;2.13;;;26.50;85.30;;;;;;4983063;28;20018;-66
2023/08/30 09:01:57;;;;;;;4.47;2.20;;;26.60;83.20;;;;;;4997503;28;20031;-66
2023/08/30 09:04:23;;;;;;;4.25;2.30;;;26.70;83.00;;;;;;4972493;28;20081;-65
2023/08/30 09:06:50;;;;;;;3.25;1.80;;;26.50;83.00;;;;;;4976635;28;20063;-66
2023/08/30 09:09:15;;;;;;;3.78;1.90;;;26.20;84.10;;;;;;4980863;28;20030;-66
2023/08/30 09:11:41;;;;;;;6.43;2.20;;;26.00;81.90;;;;;;4979512;28;20046;-66
2023/08/30 09:14:09;;;;;;;8.32;2.22;;;25.70;82.50;;;;;;4980883;28;20043;-65
2023/08/30 09:16:35;;;;;;;3.22;2.10;;;25.40;84.30;;;;;;4982381;28;20110;-65
2023/08/30 09:19:03;;;;;;;7.47;3.10;;;26.20;84.80;;;;;;4981421;28;20145;-65
2023/08/30 09:21:29;;;;;;;5.18;1.75;;;25.70;82.80;;;;;;4980171;28;20037;-65
2023/08/30 09:24:02;;;;;;;6.75;2.08;;;25.40;84.60;;;;;;4980090;28;20067;-66
2023/08/30 09:26:31;;;;;;;4.72;1.95;;;25.60;82.80;;;;;;4980425;28;20037;-65
2023/08/30 09:29:08;;;;;;;3.47;1.80;;;25.60;84.70;;;;;;4999024;28;20039;-65
2023/08/30 09:31:39;;;;;;;2.22;1.45;;;25.10;83.70;;;;;;4980019;28;20019;-66
2023/08/30 09:34:05;;;;;;;4.07;2.05;;;25.20;87.10;;;;;;4982587;28;20037;-65
2023/08/30 09:36:40;;;;;;;4.28;2.00;;;24.80;86.50;;;;;;4979154;28;20019;-65
2023/08/30 09:39:09;;;;;;;2.53;1.80;;;25.40;88.20;;;;;;4982526;28;20030;-66
2023/08/30 09:41:35;;;;;;;5.22;1.90;;;25.70;81.20;;;;;;4980117;28;20018;-65
2023/08/30 09:44:10;;;;;;;4.32;2.08;;;25.50;83.60;;;;;;4978029;28;20038;-65
2023/08/30 09:46:44;;;;;;;4.75;2.22;;;25.30;80.20;;;;;;4979191;28;20021;-64
2023/08/30 09:49:10;;;;;;;6.07;2.15;;;24.60;83.70;;;;;;4979792;28;20089;-62
2023/08/30 09:51:37;;;;;;;5.60;2.60;;;23.80;82.30;;;;;;4979357;28;20038;-66
2023/08/30 09:54:04;;;;;;;5.90;2.25;;;23.00;85.10;;;;;;4978630;28;20573;-67
2023/08/30 09:56:32;;;;;;;3.85;2.00;;;22.40;88.10;;;;;;4978502;28;20419;-67
2023/08/30 09:58:59;;;;;;;3.33;2.17;;;22.10;89.50;;;;;;4978992;28;20516;-66
2023/08/30 10:01:27;;;;;;;6.70;1.90;;;22.20;90.40;;;;;;4977528;28;20031;-67
2023/08/30 10:03:54;;;;;;;5.45;2.40;;;22.00;91.50;;;;;;4978714;28;20035;-67
2023/08/30 10:06:21;;;;;;;3.83;2.08;;;21.70;92.00;;;;;;4971223;28;20132;-66
2023/08/30 10:08:48;;;;;;;3.22;1.85;;;21.60;93.00;;;;;;4980745;28;20108;-67
2023/08/30 10:11:16;;;;;;;5.00;2.53;;;21.50;93.30;;;;;;4980720;28;20030;-66
2023/08/30 10:13:43;;;;;;;3.65;2.05;;;21.40;95.40;;;;;;4979755;28;20037;-67
2023/08/30 10:16:15;;;;;;;4.13;2.15;;;21.30;93.80;;;;;;4980153;28;20062;-67
2023/08/30 10:18:42;;;;;;;3.95;2.28;;;21.10;94.30;;;;;;4980458;28;20030;-66
2023/08/30 10:21:12;;;;;;;5.60;2.60;;;21.00;94.60;;;;;;4978931;28;20053;-67
2023/08/30 10:23:39;;;;;;;5.13;2.70;;;21.10;95.00;;;;;;4978895;28;20050;-67
2023/08/30 10:26:06;;;;;;;4.18;2.17;;;20.70;94.90;;;;;;4978873;28;20060;-67
2023/08/30 10:28:34;;;;;;;4.65;2.45;;;20.50;95.20;;;;;;4977502;28;20506;-67
2023/08/30 10:30:59;;;;;;;4.35;2.40;;;20.40;96.00;;;;;;4977870;28;20041;-67
2023/08/30 10:33:25;;;;;;;3.75;2.60;;;20.20;98.20;;;;;;4977459;28;20034;-66
2023/08/30 10:35:52;;;;;;;6.63;2.63;;;20.00;99.90;;;;;;4976606;28;20038;-66
2023/08/30 10:38:28;;;;;;;3.80;2.58;;;19.90;99.90;;;;;;4978701;28;20671;-66
2023/08/30 10:40:54;;;;;;;5.70;2.53;;;19.70;99.90;;;;;;4994895;28;20030;-67
2023/08/30 10:43:31;;;;;;;6.80;2.80;;;19.40;99.90;;;;;;4981202;28;20031;-66
2023/08/30 10:46:04;;;;;;;8.15;3.10;;;19.20;99.90;;;;;;4978275;28;21853;-67
2023/08/30 10:48:41;;;;;;;5.80;2.90;;;19.10;99.90;;;;;;4999062;28;20437;-66
2023/08/30 10:51:21;;;;;;;4.22;2.80;;;18.90;99.90;;;;;;4979790;28;20280;-67
2023/08/30 10:53:58;;;;;;;7.63;3.58;;;18.50;99.90;;;;;;4978853;28;20033;-68
2023/08/30 10:56:29;;;;;;;4.88;2.97;;;18.30;99.90;;;;;;4960694;28;20041;-67
2023/08/30 10:58:55;;;;;;;6.32;3.40;;;18.20;99.90;;;;;;4977434;28;20780;-67
2023/08/30 11:01:20;;;;;;;6.68;3.42;;;18.10;99.90;;;;;;4978417;28;20111;-66
2023/08/30 11:03:46;;;;;;;10.50;3.42;;;18.00;99.90;;;;;;4979589;28;20034;-66
2023/08/30 11:06:17;;;;;;;5.15;3.15;;;17.80;99.90;;;;;;4978371;28;20045;-66
2023/08/30 11:08:43;;;;;;;6.03;3.45;;;17.80;99.90;;;;;;4980216;28;20495;-67
2023/08/30 11:11:14;;;;;;;5.80;3.60;;;17.80;99.90;;;;;;4977285;28;20493;-66
2023/08/30 11:13:40;;;;;;;7.65;3.33;;;17.90;99.90;;;;;;4979287;28;20066;-66
2023/08/30 11:16:05;;;;;;;6.10;3.67;;;18.00;99.90;;;;;;4975110;28;20519;-66
2023/08/30 11:18:38;;;;;;;6.93;3.80;;;18.20;99.90;;;;;;4978171;28;20480;-66
2023/08/30 11:21:04;;;;;;;8.75;3.55;;;18.60;99.90;;;;;;4980632;28;20038;-66
2023/08/30 11:23:30;;;;;;;7.05;3.70;;;18.60;99.90;;;;;;4982019;28;20030;-67
2023/08/30 11:25:56;;;;;;;6.38;3.13;;;18.90;99.90;;;;;;4974986;28;20038;-65
2023/08/30 11:28:23;;;;;;;5.15;3.00;;;19.50;99.90;;;;;;4982274;28;20045;-65
2023/08/30 11:30:48;;;;;;;7.80;2.88;;;19.70;99.90;;;;;;4990511;28;20045;-67
2023/08/30 11:33:18;;;;;;;5.97;3.22;;;20.10;99.90;;;;;;4978526;28;20472;-66
2023/08/30 11:35:43;;;;;;;6.95;2.92;;;20.10;99.90;;;;;;4979829;28;20117;-67
2023/08/30 11:38:09;;;;;;;3.70;2.78;;;20.00;99.90;;;;;;4983606;28;20500;-66
2023/08/30 11:40:35;;;;;;;6.50;2.88;;;19.80;99.90;;;;;;4973872;28;20880;-66
2023/08/30 11:43:02;;;;;;;9.07;3.13;;;19.60;99.90;;;;;;4975519;28;20034;-66
2023/08/30 11:45:31;;;;;;;4.70;2.83;;;19.30;99.90;;;;;;4978447;28;20139;-66
2023/08/30 11:47:59;;;;;;;10.02;3.85;;;19.00;99.90;;;;;;4978787;28;20046;-68
2023/08/30 11:50:25;;;;;;;7.65;3.50;;;18.80;99.90;;;;;;4975704;28;20031;-66
2023/08/30 11:52:52;;;;;;;7.18;4.07;;;18.50;99.90;;;;;;4980006;28;20038;-67
2023/08/30 11:55:18;;;;;;;6.25;4.18;;;18.20;99.90;;;;;;4975292;28;20030;-67
2023/08/30 11:57:45;;;;;;;13.57;3.85;;;18.00;99.90;;;;;;4957252;28;20420;-67
2023/08/30 12:00:11;;;;;;;5.45;3.35;;;17.60;99.90;;;;;;4979200;28;20061;-67
2023/08/30 12:02:38;;;;;;;7.88;3.30;;;17.50;99.90;;;;;;4975288;28;20123;-67
2023/08/30 12:05:03;;;;;;;5.78;2.53;;;17.30;99.90;;;;;;4976714;28;20057;-67
2023/08/30 12:07:30;;;;;;;8.90;2.47;;;17.20;99.90;;;;;;4980257;28;20066;-66
2023/08/30 12:10:07;;;;;;;6.75;3.72;;;17.20;99.90;;;;;;4978494;28;20041;-67
2023/08/30 12:12:33;;;;;;;4.53;2.00;;;17.30;99.90;;;;;;4976238;28;20038;-67
2023/08/30 12:14:58;;;;;;;2.95;2.10;;;17.30;99.90;;;;;;4977355;28;20038;-68
2023/08/30 12:17:24;;;;;;;4.82;2.25;;;17.40;99.90;;;;;;4978237;28;20037;-67
2023/08/30 12:19:59;;;;;;;2.38;1.77;;;17.50;99.90;;;;;;4977775;28;20505;-67
2023/08/30 12:22:39;;;;;;;7.38;2.00;;;17.60;99.90;;;;;;4979775;28;20037;-67
2023/08/30 12:25:18;;;;;;;3.33;1.95;;;17.70;99.90;;;;;;4983733;28;20377;-67
2023/08/30 12:27:44;;;;;;;4.80;2.03;;;17.80;99.90;;;;;;4984738;28;20502;-70
2023/08/30 12:30:10;;;;;;;4.30;1.77;;;17.70;99.90;;;;;;4983247;28;20069;-67
2023/08/30 12:32:36;;;;;;;2.90;1.83;;;17.60;99.90;;;;;;4982887;28;20492;-67
2023/08/30 12:35:01;;;;;;;2.88;1.92;;;17.70;99.90;;;;;;4983250;28;20042;-67